Time;durP1;ratioP1;P1;durP2;ratioP2;P2;SDS_P1;SDS_P2;PMS_P1;PMS_P2;Temp;Humidity;BMP_temperature;BMP_pressure;BME280_temperature;BME280_humidity;BME280_pressure;Samples;Min_cycle;Max_cycle;Signal;HPM_P1;HPM_P2
2021/09/21 00:01:04;;;;;;;5.95;2.88;;;13.10;90.10;;;;;;6160380;23;20071;-84
2021/09/21 00:03:31;;;;;;;7.40;3.20;;;13.10;90.10;;;;;;6159817;23;20059;-84
2021/09/21 00:05:56;;;;;;;5.25;2.80;;;13.10;90.20;;;;;;6187009;23;20024;-84
2021/09/21 00:08:27;;;;;;;7.28;3.05;;;13.10;90.20;;;;;;6159313;23;20025;-84
2021/09/21 00:10:58;;;;;;;6.35;3.08;;;13.10;90.10;;;;;;6158639;23;20032;-85
2021/09/21 00:13:25;;;;;;;6.35;2.88;;;13.10;90.10;;;;;;6159292;23;20150;-84
2021/09/21 00:15:51;;;;;;;6.30;3.03;;;13.10;90.10;;;;;;6159758;23;20256;-84
2021/09/21 00:18:17;;;;;;;5.00;2.20;;;13.10;90.20;;;;;;6158443;23;20039;-84
2021/09/21 00:28:53;;;;;;;5.00;2.67;;;13.00;90.00;;;;;;6068534;23;20486;-84
2021/09/21 00:34:47;;;;;;;6.32;2.85;;;13.00;90.30;;;;;;6068437;23;20109;-84
2021/09/21 00:37:21;;;;;;;6.13;3.00;;;13.10;90.30;;;;;;6045150;23;20093;-84
2021/09/21 00:39:55;;;;;;;6.15;2.88;;;13.10;90.30;;;;;;6043517;23;20023;-85
2021/09/21 00:49:46;;;;;;;8.68;2.78;;;13.10;90.10;;;;;;6010692;23;20031;-84
2021/09/21 01:00:35;;;;;;;;;;;;;;;;;;;;;
2021/09/21 01:07:12;;;;;;;5.25;2.72;;;13.00;89.80;;;;;;6124974;23;20053;-85
2021/09/21 01:09:48;;;;;;;4.57;2.53;;;13.00;90.10;;;;;;6110728;23;20013;-84
2021/09/21 01:12:22;;;;;;;5.47;2.92;;;13.00;89.80;;;;;;6132497;23;20010;-84
2021/09/21 01:14:47;;;;;;;;;;;13.00;90.00;;;;;;6131837;23;20088;-83
2021/09/21 01:21:13;;;;;;;6.07;2.85;;;13.00;90.00;;;;;;6156821;23;20080;-84
2021/09/21 01:23:54;;;;;;;5.80;2.42;;;13.00;90.30;;;;;;6131694;23;20018;-84
2021/09/21 01:26:23;;;;;;;4.50;2.50;;;13.00;90.20;;;;;;6132409;23;20061;-84
2021/09/21 01:29:01;;;;;;;5.20;2.60;;;13.00;90.30;;;;;;6130690;23;20018;-84
2021/09/21 01:31:33;;;;;;;5.15;2.58;;;12.90;90.10;;;;;;6131615;23;20025;-84
2021/09/21 01:34:19;;;;;;;5.07;2.50;;;13.00;90.30;;;;;;6130153;23;20013;-85
2021/09/21 01:36:53;;;;;;;5.70;2.50;;;12.90;90.20;;;;;;6131684;23;20104;-84
2021/09/21 01:39:33;;;;;;;5.28;2.90;;;13.00;90.30;;;;;;6131680;23;20013;-84
2021/09/21 01:42:08;;;;;;;4.80;2.55;;;12.90;90.20;;;;;;6131398;23;20342;-84
2021/09/21 01:44:58;;;;;;;4.05;2.17;;;12.90;90.30;;;;;;6131475;23;20021;-85
2021/09/21 01:47:32;;;;;;;4.78;2.50;;;12.90;90.10;;;;;;6131220;23;20017;-85
2021/09/21 02:00:44;;;;;;;4.95;2.80;;;12.90;90.50;;;;;;6131453;23;20476;-85
2021/09/21 02:03:10;;;;;;;5.40;2.72;;;12.90;90.50;;;;;;6130762;23;20017;-85
2021/09/21 02:05:39;;;;;;;5.32;2.78;;;12.90;90.40;;;;;;6131329;23;20031;-85
2021/09/21 02:08:05;;;;;;;5.68;2.78;;;12.90;90.20;;;;;;6132415;23;20025;-85
2021/09/21 02:10:31;;;;;;;5.65;2.55;;;12.90;90.20;;;;;;6130835;23;20374;-85
2021/09/21 02:12:56;;;;;;;5.78;2.88;;;12.90;90.10;;;;;;6131962;23;20060;-85
2021/09/21 02:15:22;;;;;;;4.22;2.60;;;12.90;90.20;;;;;;6132371;23;20024;-85
2021/09/21 02:18:05;;;;;;;5.55;2.65;;;12.90;90.10;;;;;;6130106;23;20381;-85
2021/09/21 02:20:40;;;;;;;4.68;2.78;;;12.90;90.20;;;;;;6131567;23;20469;-85
2021/09/21 02:23:06;;;;;;;4.88;2.70;;;12.90;90.40;;;;;;6132087;23;20338;-85
2021/09/21 02:25:32;;;;;;;4.93;2.92;;;12.90;90.50;;;;;;6130934;23;20013;-85
2021/09/21 02:28:04;;;;;;;5.75;2.90;;;12.90;90.50;;;;;;6131633;23;20029;-85
2021/09/21 02:30:42;;;;;;;4.82;3.08;;;12.90;90.50;;;;;;6131115;23;20390;-85
2021/09/21 02:33:12;;;;;;;4.57;2.63;;;13.00;90.30;;;;;;6130448;23;20105;-84
2021/09/21 02:35:50;;;;;;;5.13;2.63;;;12.90;90.40;;;;;;6131435;23;20072;-85
2021/09/21 02:42:06;;;;;;;5.93;2.60;;;12.90;90.10;;;;;;6157437;23;20044;-85
2021/09/21 02:44:49;;;;;;;5.22;2.45;;;12.90;90.30;;;;;;6131252;23;20013;-84
2021/09/21 02:47:15;;;;;;;4.22;2.53;;;12.90;90.20;;;;;;6131549;23;20029;-84
2021/09/21 02:49:55;;;;;;;4.43;2.55;;;12.90;90.30;;;;;;6131905;23;20014;-86
2021/09/21 02:52:21;;;;;;;5.80;2.92;;;12.90;90.30;;;;;;6130955;23;20344;-82
2021/09/21 02:54:56;;;;;;;4.18;2.72;;;12.80;90.40;;;;;;6131140;23;20025;-85
2021/09/21 02:57:21;;;;;;;5.50;2.58;;;12.80;90.20;;;;;;6131692;23;20063;-85
2021/09/21 02:59:55;;;;;;;5.10;2.95;;;12.90;90.20;;;;;;6130546;23;20445;-85
2021/09/21 03:31:18;;;;;;;5.97;3.17;;;12.80;90.00;;;;;;6038311;23;20057;-85
2021/09/21 03:33:49;;;;;;;5.40;3.05;;;12.80;90.40;;;;;;6055524;23;20028;-85
2021/09/21 03:36:27;;;;;;;5.78;3.05;;;12.80;90.30;;;;;;6129813;23;20021;-84
2021/09/21 03:38:52;;;;;;;5.55;3.13;;;12.80;90.30;;;;;;6130461;23;20060;-83
2021/09/21 03:41:21;;;;;;;5.40;3.30;;;12.80;90.30;;;;;;6129689;23;20017;-84
2021/09/21 04:25:14;;;;;;;6.10;3.13;;;12.70;90.20;;;;;;6125406;23;20089;-84
2021/09/21 04:27:43;;;;;;;5.30;3.05;;;12.70;90.30;;;;;;6099780;23;20117;-84
2021/09/21 04:30:21;;;;;;;5.55;3.25;;;12.70;90.40;;;;;;6101517;23;20443;-84
2021/09/21 04:32:47;;;;;;;6.68;3.50;;;12.70;90.40;;;;;;6100999;23;20017;-85
2021/09/21 04:35:12;;;;;;;6.03;3.20;;;12.70;90.50;;;;;;6102607;23;20045;-83
2021/09/21 04:37:38;;;;;;;5.50;3.30;;;12.70;90.50;;;;;;6101074;23;20053;-86
2021/09/21 04:44:28;;;;;;;5.78;3.33;;;12.70;90.10;;;;;;6156529;23;20028;-84
2021/09/21 04:46:56;;;;;;;5.38;3.25;;;12.70;90.60;;;;;;6130641;23;20036;-83
2021/09/21 04:49:22;;;;;;;5.22;3.00;;;12.70;90.60;;;;;;6130547;23;20006;-83
2021/09/21 04:51:47;;;;;;;4.80;3.00;;;12.70;90.70;;;;;;6129105;23;20100;-84
2021/09/21 04:54:13;;;;;;;5.95;3.00;;;12.70;90.60;;;;;;6129773;23;20021;-83
2021/09/21 04:56:38;;;;;;;5.90;3.22;;;12.70;90.70;;;;;;6129846;23;20024;-83
2021/09/21 04:59:04;;;;;;;5.20;3.10;;;12.70;90.70;;;;;;6129646;23;20013;-83
2021/09/21 05:01:30;;;;;;;5.55;3.10;;;12.70;90.60;;;;;;6131775;23;20017;-83
2021/09/21 05:03:55;;;;;;;5.90;3.50;;;12.70;90.50;;;;;;6130695;23;20027;-83
2021/09/21 05:06:21;;;;;;;6.60;3.63;;;12.70;90.30;;;;;;6129465;23;20049;-84
2021/09/21 05:08:46;;;;;;;5.60;3.25;;;12.70;90.30;;;;;;6155820;23;20025;-83
2021/09/21 05:11:12;;;;;;;8.40;3.90;;;12.70;90.30;;;;;;6131842;23;20025;-83
2021/09/21 05:13:37;;;;;;;6.30;3.90;;;12.60;90.30;;;;;;6130748;23;20343;-83
2021/09/21 05:22:14;;;;;;;6.07;3.83;;;12.60;90.10;;;;;;6102775;23;20022;-83
2021/09/21 05:24:39;;;;;;;7.60;3.97;;;12.60;90.50;;;;;;6101760;23;20021;-83
2021/09/21 05:27:05;;;;;;;5.70;3.47;;;12.60;90.50;;;;;;6101698;23;20014;-83
2021/09/21 05:29:31;;;;;;;5.20;3.40;;;12.60;90.50;;;;;;6126818;23;20120;-83
2021/09/21 05:31:58;;;;;;;6.65;3.40;;;12.60;90.60;;;;;;6126970;23;20018;-83
2021/09/21 05:34:24;;;;;;;5.90;3.63;;;12.60;90.70;;;;;;6101109;23;20018;-83
2021/09/21 05:36:50;;;;;;;5.97;3.83;;;12.60;90.70;;;;;;6126649;23;20045;-83
2021/09/21 05:39:16;;;;;;;5.00;3.20;;;12.50;90.70;;;;;;6126901;23;20013;-83
2021/09/21 05:41:43;;;;;;;7.03;3.60;;;12.50;90.80;;;;;;6101153;23;20010;-82
2021/09/21 05:44:08;;;;;;;5.95;3.50;;;12.50;91.10;;;;;;6102447;23;20021;-83
2021/09/21 05:46:34;;;;;;;5.63;3.72;;;12.50;90.80;;;;;;6126689;23;20338;-83
2021/09/21 05:49:00;;;;;;;6.00;3.95;;;12.50;90.80;;;;;;6125847;23;20096;-83
2021/09/21 05:51:28;;;;;;;5.63;3.47;;;12.50;90.80;;;;;;6126293;23;20026;-83
2021/09/21 05:53:54;;;;;;;6.40;3.50;;;12.50;90.80;;;;;;6126715;23;20025;-83
2021/09/21 05:56:20;;;;;;;5.43;3.40;;;12.50;90.90;;;;;;6101132;23;20010;-83
2021/09/21 05:58:46;;;;;;;5.60;3.65;;;12.50;90.80;;;;;;6102214;23;20022;-83
2021/09/21 06:05:43;;;;;;;6.97;3.58;;;12.40;90.50;;;;;;5982446;24;20028;-83
2021/09/21 06:16:00;;;;;;;5.93;3.65;;;12.30;90.50;;;;;;5829374;24;20017;-83
2021/09/21 06:18:25;;;;;;;7.45;3.88;;;12.30;91.10;;;;;;5883930;23;20041;-83
2021/09/21 06:20:51;;;;;;;6.53;3.40;;;12.30;91.10;;;;;;6014674;23;20098;-83
2021/09/21 06:23:20;;;;;;;6.40;3.78;;;12.30;91.10;;;;;;6013515;23;20023;-83
2021/09/21 06:25:45;;;;;;;5.18;3.58;;;12.30;91.10;;;;;;6014197;23;20067;-83
2021/09/21 06:28:11;;;;;;;6.65;3.47;;;12.30;91.10;;;;;;6014677;23;20055;-83
2021/09/21 06:30:37;;;;;;;6.40;3.90;;;12.30;91.10;;;;;;6013509;23;20019;-83
2021/09/21 06:33:03;;;;;;;6.88;3.53;;;12.30;91.10;;;;;;6014424;23;20454;-83
2021/09/21 06:35:29;;;;;;;6.68;3.80;;;12.30;91.10;;;;;;6014437;23;20418;-82
2021/09/21 06:37:55;;;;;;;6.78;3.80;;;12.30;91.10;;;;;;6016204;23;20119;-83
2021/09/21 06:40:21;;;;;;;6.00;4.00;;;12.40;91.00;;;;;;6014671;23;20420;-83
2021/09/21 06:42:47;;;;;;;5.93;3.45;;;12.30;91.10;;;;;;6014038;23;20026;-82
2021/09/21 06:45:16;;;;;;;5.55;3.22;;;12.30;90.90;;;;;;6037104;23;20015;-82
2021/09/21 06:47:43;;;;;;;6.70;3.72;;;12.30;90.60;;;;;;6037867;23;20259;-82
2021/09/21 06:50:10;;;;;;;6.72;4.05;;;12.40;90.80;;;;;;6014623;23;20368;-82
2021/09/21 06:52:36;;;;;;;5.55;3.70;;;12.30;90.50;;;;;;6027702;23;20089;-82
2021/09/21 06:55:03;;;;;;;5.90;3.88;;;12.30;90.60;;;;;;6100923;23;20038;-82
2021/09/21 06:57:29;;;;;;;6.68;3.70;;;12.30;90.70;;;;;;6100921;23;20140;-82
2021/09/21 06:59:57;;;;;;;7.22;3.97;;;12.30;91.20;;;;;;6100036;23;20042;-82
2021/09/21 07:02:23;;;;;;;5.80;3.90;;;12.30;90.80;;;;;;6101137;23;20068;-82
2021/09/21 07:04:49;;;;;;;6.82;3.53;;;12.30;90.70;;;;;;6127324;23;20018;-82
2021/09/21 07:07:14;;;;;;;5.70;3.70;;;12.30;90.80;;;;;;6100375;23;20024;-82
2021/09/21 07:09:40;;;;;;;6.00;4.00;;;12.40;90.70;;;;;;6100831;23;20014;-83
2021/09/21 07:12:06;;;;;;;7.30;4.00;;;12.40;90.70;;;;;;6100358;23;20014;-83
2021/09/21 07:14:31;;;;;;;6.85;4.15;;;12.40;90.50;;;;;;6100886;23;20521;-83
2021/09/21 07:16:57;;;;;;;7.55;4.47;;;12.40;90.50;;;;;;6100848;23;20024;-82
2021/09/21 07:19:22;;;;;;;6.65;4.32;;;12.40;90.50;;;;;;6099997;23;20065;-82
2021/09/21 07:21:48;;;;;;;5.70;3.35;;;12.50;90.40;;;;;;6127162;23;20018;-83
2021/09/21 07:24:15;;;;;;;7.80;3.88;;;12.50;90.50;;;;;;6127454;23;20506;-82
2021/09/21 07:26:41;;;;;;;6.97;4.00;;;12.50;90.40;;;;;;6125984;23;20022;-82
2021/09/21 07:29:07;;;;;;;5.60;3.75;;;12.60;90.30;;;;;;6126862;23;20025;-83
2021/09/21 07:31:32;;;;;;;8.48;4.65;;;12.60;90.30;;;;;;6100426;23;20342;-85
2021/09/21 07:33:58;;;;;;;6.63;3.55;;;12.60;90.20;;;;;;6126737;23;20097;-83
2021/09/21 07:36:24;;;;;;;6.40;3.53;;;12.60;90.20;;;;;;6100929;23;20014;-83
2021/09/21 07:38:49;;;;;;;6.72;4.10;;;12.70;90.30;;;;;;6127222;23;20026;-84
2021/09/21 07:41:15;;;;;;;7.68;4.70;;;12.80;90.20;;;;;;6126218;23;20018;-83
2021/09/21 07:43:43;;;;;;;8.75;4.45;;;12.80;90.20;;;;;;6101135;23;20018;-83
2021/09/21 07:46:09;;;;;;;6.72;4.00;;;12.80;90.10;;;;;;6127412;23;20327;-83
2021/09/21 07:48:34;;;;;;;7.18;4.20;;;12.90;90.10;;;;;;6099940;23;20022;-83
2021/09/21 07:51:00;;;;;;;7.38;4.03;;;12.90;90.10;;;;;;6127355;23;20014;-83
2021/09/21 07:53:25;;;;;;;9.20;4.43;;;13.00;90.10;;;;;;6100874;23;20018;-83
2021/09/21 07:55:51;;;;;;;7.28;4.13;;;13.00;90.10;;;;;;6125929;23;20025;-83
2021/09/21 07:58:18;;;;;;;8.10;4.80;;;13.10;90.10;;;;;;6100838;23;20022;-83
2021/09/21 08:00:44;;;;;;;8.10;4.35;;;13.10;90.00;;;;;;6126204;23;20032;-83
2021/09/21 08:03:10;;;;;;;9.27;4.90;;;13.20;90.00;;;;;;6099959;23;20026;-83
2021/09/21 08:05:35;;;;;;;6.22;4.20;;;13.20;89.90;;;;;;6101018;23;20014;-84
2021/09/21 08:08:01;;;;;;;7.35;4.10;;;13.30;90.00;;;;;;6126752;23;20097;-83
2021/09/21 08:10:27;;;;;;;7.60;4.45;;;13.30;89.90;;;;;;6099652;23;20020;-83
2021/09/21 08:12:53;;;;;;;6.55;4.05;;;13.40;89.90;;;;;;6101076;23;20025;-84
2021/09/21 08:15:19;;;;;;;9.43;4.50;;;13.40;90.00;;;;;;6127240;23;20065;-83
2021/09/21 08:17:45;;;;;;;6.78;4.00;;;13.50;89.90;;;;;;6099802;23;20025;-83
2021/09/21 08:20:12;;;;;;;7.00;4.22;;;13.60;90.00;;;;;;6100676;23;20010;-84
2021/09/21 08:22:38;;;;;;;8.32;4.75;;;13.60;90.00;;;;;;6099388;23;20101;-84
2021/09/21 08:25:08;;;;;;;8.85;4.70;;;13.60;89.90;;;;;;6126132;23;20053;-84
2021/09/21 08:27:36;;;;;;;6.05;3.88;;;13.70;90.00;;;;;;6099141;23;20021;-84
2021/09/21 08:30:01;;;;;;;8.45;4.78;;;13.80;89.90;;;;;;6099868;23;20026;-84
2021/09/21 08:32:27;;;;;;;8.65;4.78;;;13.80;89.90;;;;;;6126283;23;20108;-84
2021/09/21 08:34:53;;;;;;;6.38;3.80;;;13.90;89.90;;;;;;6100670;23;20010;-84
2021/09/21 08:37:19;;;;;;;8.20;4.38;;;13.90;89.80;;;;;;6098973;23;20024;-85
2021/09/21 08:39:44;;;;;;;10.10;4.72;;;14.00;89.80;;;;;;6099974;23;20041;-84
2021/09/21 08:42:10;;;;;;;8.20;4.90;;;14.10;89.50;;;;;;6100417;23;20021;-84
2021/09/21 08:44:37;;;;;;;7.88;4.28;;;14.20;89.40;;;;;;6126416;23;20018;-86
2021/09/21 08:47:07;;;;;;;7.38;4.40;;;14.20;89.40;;;;;;6102476;23;20018;-84
2021/09/21 08:49:32;;;;;;;10.32;4.80;;;14.20;89.70;;;;;;6102512;23;20021;-83
2021/09/21 08:51:59;;;;;;;5.90;4.20;;;14.30;89.50;;;;;;6101370;23;20017;-86
2021/09/21 08:54:26;;;;;;;8.93;4.43;;;14.40;89.30;;;;;;6102113;23;20021;-83
2021/09/21 08:56:54;;;;;;;7.25;4.47;;;14.40;89.30;;;;;;6128093;23;20028;-84
2021/09/21 08:59:28;;;;;;;6.53;4.13;;;14.50;89.20;;;;;;6127766;23;20021;-84
2021/09/21 09:01:53;;;;;;;7.38;4.45;;;14.60;88.60;;;;;;6102291;23;20021;-85
2021/09/21 09:04:22;;;;;;;8.38;4.47;;;14.60;88.10;;;;;;6102482;23;20399;-85
2021/09/21 09:06:52;;;;;;;7.28;4.18;;;14.70;87.80;;;;;;6100748;23;20017;-85
2021/09/21 09:09:23;;;;;;;5.80;3.97;;;14.80;87.70;;;;;;6102136;23;20455;-85
2021/09/21 09:11:53;;;;;;;9.02;4.45;;;14.90;87.30;;;;;;6101211;23;20010;-82
2021/09/21 09:14:26;;;;;;;8.23;4.13;;;14.90;87.60;;;;;;6102584;23;20042;-84
2021/09/21 09:16:57;;;;;;;7.30;4.03;;;15.00;87.50;;;;;;6102543;23;20050;-84
2021/09/21 09:19:52;;;;;;;8.52;3.90;;;15.00;87.50;;;;;;6101261;23;20022;-83
2021/09/21 09:22:23;;;;;;;7.93;4.32;;;15.10;86.90;;;;;;6072267;23;20613;-83
2021/09/21 09:24:55;;;;;;;8.13;3.70;;;15.20;86.40;;;;;;6101778;23;20049;-83
2021/09/21 09:27:34;;;;;;;10.15;4.22;;;15.30;86.20;;;;;;6101319;23;20061;-82
2021/09/21 09:30:03;;;;;;;12.20;4.35;;;15.40;86.00;;;;;;6102351;23;20021;-83
2021/09/21 09:32:28;;;;;;;7.43;4.30;;;15.50;86.00;;;;;;6102152;23;20018;-82
2021/09/21 09:34:58;;;;;;;8.68;4.72;;;15.60;85.90;;;;;;6100170;23;20562;-82
2021/09/21 09:37:24;;;;;;;11.15;4.72;;;15.60;85.60;;;;;;6100573;23;20026;-82
2021/09/21 09:39:59;;;;;;;10.35;5.38;;;15.70;86.30;;;;;;6099930;23;20057;-82
2021/09/21 09:42:24;;;;;;;10.27;4.65;;;15.80;86.10;;;;;;6100753;23;20014;-82
2021/09/21 09:44:50;;;;;;;10.85;5.95;;;15.90;86.10;;;;;;6100839;23;20018;-82
2021/09/21 09:47:16;;;;;;;10.60;4.88;;;16.00;86.10;;;;;;6104658;23;20021;-83
2021/09/21 09:49:45;;;;;;;9.68;4.28;;;16.00;85.20;;;;;;6129616;23;20056;-83
2021/09/21 09:52:14;;;;;;;8.90;4.50;;;16.20;83.70;;;;;;6130128;23;20018;-83
2021/09/21 09:54:47;;;;;;;11.90;5.10;;;16.20;82.90;;;;;;6129375;23;20029;-83
2021/09/21 09:57:16;;;;;;;11.13;5.60;;;16.30;82.10;;;;;;6156198;23;20018;-83
2021/09/21 09:59:42;;;;;;;12.63;5.60;;;16.30;81.70;;;;;;6129825;23;20257;-83
2021/09/21 10:02:08;;;;;;;10.32;5.68;;;16.40;82.20;;;;;;6154503;23;20084;-83
2021/09/21 10:04:35;;;;;;;14.88;6.20;;;16.40;82.20;;;;;;6129202;23;20320;-82
2021/09/21 10:07:00;;;;;;;15.77;5.90;;;16.50;82.30;;;;;;6129276;23;20013;-83
2021/09/21 10:09:26;;;;;;;12.98;6.55;;;16.50;82.00;;;;;;6128288;23;20060;-83
2021/09/21 10:11:57;;;;;;;11.45;6.25;;;16.60;81.80;;;;;;6129359;23;20033;-83
2021/09/21 10:14:24;;;;;;;11.68;6.50;;;16.60;82.20;;;;;;6130282;23;20040;-83
2021/09/21 10:16:52;;;;;;;13.15;7.03;;;16.70;81.50;;;;;;6129278;23;20046;-83
2021/09/21 10:19:19;;;;;;;13.70;7.00;;;16.70;81.00;;;;;;6130755;23;20024;-83
2021/09/21 10:21:47;;;;;;;13.18;7.10;;;16.80;81.00;;;;;;6130926;23;20013;-84
2021/09/21 10:24:13;;;;;;;13.85;6.25;;;16.80;80.80;;;;;;6130475;23;20069;-83
2021/09/21 10:26:41;;;;;;;12.95;6.85;;;16.80;80.70;;;;;;6156229;23;20013;-84
2021/09/21 10:29:08;;;;;;;16.73;7.28;;;16.90;80.50;;;;;;6130278;23;20040;-84
2021/09/21 10:31:35;;;;;;;12.55;6.50;;;16.90;80.40;;;;;;6156944;23;20041;-83
2021/09/21 10:34:15;;;;;;;11.77;6.43;;;17.00;80.70;;;;;;6130706;23;20501;-83
2021/09/21 10:36:52;;;;;;;12.68;6.00;;;17.00;80.20;;;;;;6130923;23;20068;-83
2021/09/21 10:39:20;;;;;;;10.73;5.93;;;17.00;80.80;;;;;;6130969;23;20033;-83
2021/09/21 10:42:06;;;;;;;10.25;5.68;;;17.10;80.90;;;;;;6130524;23;20068;-83
2021/09/21 10:44:35;;;;;;;9.63;5.47;;;17.20;80.50;;;;;;6130222;23;20100;-82
2021/09/21 10:47:04;;;;;;;11.00;6.05;;;17.20;80.70;;;;;;6130960;23;20382;-82
2021/09/21 10:49:41;;;;;;;12.85;5.68;;;17.20;80.50;;;;;;6130657;23;20057;-83
2021/09/21 10:52:15;;;;;;;11.13;5.15;;;17.30;80.20;;;;;;6130403;23;20071;-83
2021/09/21 10:55:03;;;;;;;10.65;5.35;;;17.40;80.50;;;;;;6130746;23;20022;-82
2021/09/21 10:57:33;;;;;;;9.82;5.28;;;17.40;80.40;;;;;;6129087;23;20049;-82
2021/09/21 11:00:00;;;;;;;9.27;5.40;;;17.50;79.70;;;;;;6130730;23;20028;-82
2021/09/21 11:02:32;;;;;;;10.20;5.15;;;17.50;79.60;;;;;;6156458;23;20485;-83
2021/09/21 11:04:59;;;;;;;8.57;4.82;;;17.60;79.70;;;;;;6129745;23;20014;-83
2021/09/21 11:07:25;;;;;;;8.10;4.43;;;17.60;79.70;;;;;;6129664;23;20446;-83
2021/09/21 11:09:53;;;;;;;8.95;4.30;;;17.70;79.10;;;;;;6129893;23;20017;-84
2021/09/21 11:12:22;;;;;;;9.65;4.10;;;17.70;78.50;;;;;;6128628;23;20044;-82
2021/09/21 11:14:48;;;;;;;10.00;4.32;;;17.80;79.00;;;;;;6129413;23;20071;-84
2021/09/21 11:17:15;;;;;;;7.78;4.40;;;17.80;78.10;;;;;;6156358;23;20018;-83
2021/09/21 11:19:41;;;;;;;7.47;3.97;;;17.90;78.00;;;;;;6128329;23;20037;-82
2021/09/21 11:22:09;;;;;;;8.23;3.78;;;17.90;78.50;;;;;;6129582;23;20009;-84
2021/09/21 11:24:37;;;;;;;7.40;4.53;;;17.90;77.30;;;;;;6129259;23;20048;-84
2021/09/21 11:27:09;;;;;;;9.65;4.22;;;17.90;77.40;;;;;;6128011;23;20438;-83
2021/09/21 11:29:42;;;;;;;9.57;4.23;;;18.00;77.80;;;;;;6128595;23;20020;-84
2021/09/21 11:32:21;;;;;;;9.02;4.28;;;18.00;77.80;;;;;;6128937;23;20315;-83
2021/09/21 11:35:02;;;;;;;8.10;3.97;;;18.00;77.60;;;;;;6129394;23;20079;-84
2021/09/21 11:37:28;;;;;;;7.07;3.88;;;18.10;77.40;;;;;;6128586;23;20009;-84
2021/09/21 11:39:54;;;;;;;8.65;4.47;;;18.10;77.40;;;;;;6128415;23;20152;-84
2021/09/21 11:42:26;;;;;;;9.57;4.18;;;18.10;77.20;;;;;;6129351;23;20069;-83
2021/09/21 11:45:04;;;;;;;7.45;3.88;;;18.10;77.10;;;;;;6128981;23;20014;-84
2021/09/21 11:47:43;;;;;;;7.57;4.03;;;18.10;77.60;;;;;;6127872;23;20342;-84
2021/09/21 11:50:15;;;;;;;8.75;4.80;;;18.10;77.50;;;;;;6131106;23;20097;-84
2021/09/21 11:52:45;;;;;;;9.65;4.45;;;18.20;77.60;;;;;;6128571;23;20060;-84
2021/09/21 11:55:13;;;;;;;7.82;4.30;;;18.20;77.30;;;;;;6154967;23;20022;-84
2021/09/21 12:06:20;;;;;;;8.07;4.32;;;18.20;77.30;;;;;;6155391;23;20047;-83
2021/09/21 12:09:22;;;;;;;7.47;4.22;;;18.20;78.00;;;;;;6154317;23;20018;-83
2021/09/21 12:12:22;;;;;;;7.47;4.30;;;18.20;77.80;;;;;;6129778;23;20021;-84
2021/09/21 12:26:38;;;;;;;8.50;4.55;;;18.20;77.60;;;;;;6162121;23;20028;-84
2021/09/21 12:47:06;;;;;;;9.02;4.50;;;18.20;78.80;;;;;;5982227;24;20072;-85
2021/09/21 13:04:10;;;;;;;11.52;5.38;;;18.20;78.40;;;;;;6247345;23;20062;-86
2021/09/21 13:18:47;;;;;;;;;;;;;;;;;;;;;
2021/09/21 13:29:48;;;;;;;9.98;5.63;;;18.50;77.80;;;;;;6125455;23;20049;-85
2021/09/21 13:36:37;;;;;;;12.25;5.57;;;18.60;77.50;;;;;;6124497;23;20065;-85
2021/09/21 13:46:46;;;;;;;12.65;6.72;;;18.70;78.10;;;;;;6182223;23;20019;-85
2021/09/21 13:53:45;;;;;;;12.38;5.80;;;18.70;77.30;;;;;;6183556;23;20095;-86
2021/09/21 14:29:19;;;;;;;11.32;6.47;;;18.90;77.70;;;;;;6095277;23;20109;-86
2021/09/21 14:31:44;;;;;;;12.02;6.40;;;18.80;78.40;;;;;;6072277;23;20023;-88
2021/09/21 14:34:10;;;;;;;10.98;6.63;;;18.80;78.70;;;;;;6139930;23;20505;-87
2021/09/21 14:36:39;;;;;;;8.60;6.13;;;18.90;79.00;;;;;;6160173;23;20021;-89
2021/09/21 14:39:06;;;;;;;11.30;6.18;;;18.90;79.10;;;;;;6160595;23;20084;-89
2021/09/21 14:41:32;;;;;;;8.52;5.70;;;18.90;79.50;;;;;;6160194;23;20095;-88
2021/09/21 14:43:58;;;;;;;11.43;5.93;;;18.90;79.90;;;;;;6159545;23;20465;-87
2021/09/21 14:46:27;;;;;;;8.77;5.97;;;18.90;80.60;;;;;;6160390;23;20040;-89
2021/09/21 14:48:57;;;;;;;8.05;5.50;;;18.90;79.90;;;;;;6160488;23;20052;-89
2021/09/21 14:51:26;;;;;;;8.10;5.70;;;19.00;80.60;;;;;;6159386;23;20024;-88
2021/09/21 14:53:53;;;;;;;10.00;5.55;;;18.90;81.30;;;;;;6161283;23;20013;-91
2021/09/21 14:56:21;;;;;;;11.02;5.75;;;19.00;81.60;;;;;;6160251;23;20045;-92
2021/09/21 14:58:47;;;;;;;8.70;5.60;;;19.00;81.60;;;;;;6160535;23;20009;-87
2021/09/21 15:08:52;;;;;;;11.52;4.97;;;19.00;81.10;;;;;;6156257;23;20433;-85
2021/09/21 15:11:37;;;;;;;9.73;4.78;;;19.10;80.50;;;;;;6155652;23;20104;-86
2021/09/21 15:33:28;;;;;;;10.88;5.97;;;19.10;80.20;;;;;;6185016;23;20090;-86
2021/09/21 15:39:51;;;;;;;8.60;5.15;;;19.10;80.50;;;;;;6011928;23;20028;-83
2021/09/21 15:46:32;;;;;;;9.82;4.60;;;19.10;80.90;;;;;;6184721;23;20012;-87
2021/09/21 15:49:04;;;;;;;8.63;4.63;;;19.10;80.60;;;;;;6041994;23;20023;-86
2021/09/21 15:55:26;;;;;;;10.00;5.03;;;19.10;80.80;;;;;;6094821;23;20097;-85
2021/09/21 15:57:52;;;;;;;7.55;4.32;;;19.10;80.90;;;;;;6070522;23;20014;-84
2021/09/21 16:00:21;;;;;;;10.13;4.90;;;19.10;80.50;;;;;;6108232;23;20389;-84
2021/09/21 16:02:47;;;;;;;7.15;4.60;;;19.10;80.40;;;;;;6159545;23;20021;-84
2021/09/21 16:05:14;;;;;;;8.02;4.40;;;19.10;81.30;;;;;;6159516;23;20092;-86
2021/09/21 16:07:39;;;;;;;8.43;4.25;;;19.10;81.20;;;;;;6158553;23;20021;-85
2021/09/21 16:10:09;;;;;;;7.47;4.20;;;19.10;81.10;;;;;;6159592;23;20346;-84
2021/09/21 16:12:34;;;;;;;7.10;4.78;;;19.00;80.50;;;;;;6158855;23;20132;-83
2021/09/21 16:15:02;;;;;;;10.77;4.43;;;19.10;80.40;;;;;;6158531;23;20017;-84
2021/09/21 16:17:27;;;;;;;7.18;4.30;;;19.00;80.30;;;;;;6159291;23;20075;-83
2021/09/21 16:19:53;;;;;;;8.20;4.10;;;19.00;81.00;;;;;;6185346;23;20168;-82
2021/09/21 16:22:19;;;;;;;7.85;4.50;;;19.00;81.10;;;;;;6158722;23;20099;-83
2021/09/21 16:24:46;;;;;;;7.18;4.10;;;19.00;82.20;;;;;;6158691;23;20017;-83
2021/09/21 16:27:14;;;;;;;7.22;4.28;;;18.90;80.90;;;;;;6159092;23;20021;-86
2021/09/21 16:29:43;;;;;;;7.85;4.35;;;19.00;81.40;;;;;;6153547;23;20069;-90
2021/09/21 16:32:09;;;;;;;8.00;4.28;;;18.90;80.90;;;;;;6159712;23;20024;-92
2021/09/21 16:34:37;;;;;;;7.72;4.32;;;19.00;81.10;;;;;;6160924;23;20084;-92
2021/09/21 16:37:05;;;;;;;8.77;4.57;;;18.90;81.30;;;;;;6160346;23;20015;-91
2021/09/21 16:39:31;;;;;;;6.30;4.28;;;18.90;80.40;;;;;;6160574;23;20017;-91
2021/09/21 16:41:57;;;;;;;11.15;4.53;;;18.90;81.10;;;;;;6158952;23;20013;-91
2021/09/21 16:44:22;;;;;;;7.80;4.07;;;18.80;81.00;;;;;;6160261;23;20067;-92
2021/09/21 16:47:03;;;;;;;;;;;;;;;;;;;;;
2021/09/21 16:54:23;;;;;;;7.50;4.47;;;18.80;82.80;;;;;;6186824;23;20056;-91
2021/09/21 16:56:58;;;;;;;8.57;4.45;;;18.80;83.50;;;;;;6160219;23;20095;-92
2021/09/21 16:59:36;;;;;;;;;;;;;;;;;;;;;
2021/09/21 17:02:10;;;;;;;7.43;4.82;;;18.80;83.80;;;;;;6159392;23;20071;-85
2021/09/21 17:04:46;;;;;;;6.72;4.50;;;18.80;82.80;;;;;;6158744;23;20017;-87
2021/09/21 17:07:24;;;;;;;7.80;4.45;;;18.80;83.20;;;;;;6161280;23;20083;-85
2021/09/21 17:10:02;;;;;;;9.18;4.03;;;18.80;83.40;;;;;;6161131;23;20013;-86
2021/09/21 17:12:48;;;;;;;8.13;5.07;;;18.80;84.00;;;;;;6160785;23;20013;-85
2021/09/21 17:15:14;;;;;;;10.23;4.80;;;18.80;83.30;;;;;;6161116;23;20017;-86
2021/09/21 17:17:40;;;;;;;5.40;3.88;;;18.80;83.60;;;;;;6160092;23;20160;-86
2021/09/21 17:20:06;;;;;;;6.53;4.20;;;18.80;84.50;;;;;;6160997;23;20437;-85
2021/09/21 17:22:32;;;;;;;8.02;4.80;;;18.80;85.20;;;;;;6160624;23;20092;-85
2021/09/21 17:24:58;;;;;;;6.65;3.92;;;18.80;84.80;;;;;;6160100;23;20040;-86
2021/09/21 17:27:24;;;;;;;8.48;4.65;;;18.80;85.80;;;;;;6160873;23;20013;-85
2021/09/21 17:29:49;;;;;;;7.32;4.85;;;18.80;86.10;;;;;;6161264;23;20017;-85
2021/09/21 17:32:15;;;;;;;7.57;4.30;;;18.80;85.60;;;;;;6160526;23;20017;-87
2021/09/21 17:34:40;;;;;;;6.82;4.47;;;18.90;86.10;;;;;;6160158;23;20068;-83
2021/09/21 17:37:06;;;;;;;5.50;4.13;;;18.90;86.50;;;;;;6161000;23;20096;-83
2021/09/21 17:39:32;;;;;;;6.20;4.20;;;18.80;86.60;;;;;;6186534;23;20052;-83
2021/09/21 17:41:58;;;;;;;7.10;4.10;;;18.90;86.80;;;;;;6161215;23;20016;-83
2021/09/21 17:44:23;;;;;;;6.97;3.85;;;18.90;86.80;;;;;;6161386;23;20056;-83
2021/09/21 17:46:49;;;;;;;6.95;4.53;;;18.90;86.80;;;;;;6160395;23;20013;-83
2021/09/21 17:49:15;;;;;;;6.50;4.20;;;18.90;86.80;;;;;;6161246;23;20052;-83
2021/09/21 17:51:41;;;;;;;8.20;4.35;;;18.90;87.60;;;;;;6160997;23;20017;-83
2021/09/21 17:54:08;;;;;;;6.28;4.60;;;18.90;86.90;;;;;;6185916;23;20013;-83
2021/09/21 17:56:34;;;;;;;6.32;4.25;;;18.90;86.80;;;;;;6160194;23;20152;-83
2021/09/21 17:59:02;;;;;;;6.53;4.55;;;18.90;86.90;;;;;;6160592;23;20031;-83
2021/09/21 18:01:29;;;;;;;7.05;4.50;;;18.90;87.00;;;;;;6159582;23;20009;-83
2021/09/21 18:03:55;;;;;;;6.15;4.38;;;18.80;86.80;;;;;;6161058;23;20035;-83
2021/09/21 18:06:20;;;;;;;6.88;4.32;;;18.90;86.70;;;;;;6159941;23;20047;-83
2021/09/21 18:08:46;;;;;;;6.13;4.25;;;18.90;86.70;;;;;;6160533;23;20028;-83